This is the latest recevied weather packets stored in our database for station/object SV2RIM-2. If no packets are shown the sender has not sent any weather packets the latest 1 day(s).
| Time | Temp. | Humidity | Pressure | Rain* | Wind** | Luminosity | Snow |
|---|---|---|---|---|---|---|---|
| 1778044219 | 12.78° C | 59% | 1015.5 hPa | - | 1.79 m/s, 341° | - | - |
| 1778043619 | 12.22° C | 60% | 1015.5 hPa | - | 2.24 m/s, 326° | - | - |
| 1778043019 | 12.22° C | 60% | 1015.4 hPa | - | 2.68 m/s, 339° | - | - |
| 1778042419 | 11.11° C | 62% | 1015.3 hPa | - | 2.68 m/s, 348° | - | - |
| 1778041819 | 10.56° C | 64% | 1015.3 hPa | - | 2.24 m/s, 310° | - | - |
| 1778041219 | 11.11° C | 62% | 1015.2 hPa | - | 3.13 m/s, 341° | - | - |
| 1778040619 | 11.67° C | 60% | 1015.1 hPa | - | 3.13 m/s, 342° | - | - |
| 1778040019 | 11.11° C | 61% | 1015.1 hPa | - | 3.13 m/s, 345° | - | - |
| 1778039419 | 10.56° C | 62% | 1015.1 hPa | - | 2.68 m/s, 325° | - | - |
| 1778038819 | 10.56° C | 63% | 1015 hPa | - | 2.68 m/s, 335° | - | - |
| 1778038219 | 10.56° C | 62% | 1014.9 hPa | - | 3.13 m/s, 339° | - | - |
| 1778037619 | 10.56° C | 61% | 1014.9 hPa | - | 2.24 m/s, 335° | - | - |
| 1778037019 | 10.56° C | 61% | 1014.8 hPa | - | 2.68 m/s, 353° | - | - |
| 1778036419 | 10.56° C | 61% | 1014.8 hPa | - | 2.24 m/s, 331° | - | - |
| 1778035819 | 10.56° C | 61% | 1014.7 hPa | - | 2.24 m/s, 334° | - | - |
| 1778035219 | 10.56° C | 61% | 1014.7 hPa | - | 2.68 m/s, 313° | - | - |
| 1778034619 | 11.11° C | 60% | 1014.8 hPa | - | 2.68 m/s, 334° | - | - |
| 1778034019 | 11.11° C | 59% | 1014.8 hPa | - | 2.24 m/s, 328° | - | - |
| 1778033419 | 11.11° C | 59% | 1014.8 hPa | - | 2.24 m/s, 309° | - | - |
| 1778032819 | 11.11° C | 59% | 1014.8 hPa | - | 2.24 m/s, 330° | - | - |
| 1778032219 | 11.11° C | 59% | 1014.8 hPa | - | 2.24 m/s, 316° | - | - |
| 1778031619 | 11.67° C | 58% | 1014.9 hPa | - | 2.68 m/s, 330° | - | - |
| 1778031019 | 11.67° C | 58% | 1014.8 hPa | - | 2.24 m/s, 330° | - | - |
| 1778030419 | 11.67° C | 58% | 1014.9 hPa | - | 2.24 m/s, 332° | - | - |
| 1778029819 | 11.67° C | 57% | 1014.9 hPa | - | 1.79 m/s, 318° | - | - |
* Rain since midnight (hover to see other rain measurements)
** Current wind speed in m/s (hover to see current wind gust speed)